Time;durP1;ratioP1;P1;durP2;ratioP2;P2;SDS_P1;SDS_P2;PMS_P1;PMS_P2;Temp;Humidity;BMP_temperature;BMP_pressure;BME280_temperature;BME280_humidity;BME280_pressure;Samples;Min_cycle;Max_cycle;Signal;HPM_P1;HPM_P2
2023/08/08 00:00:37;;;;;;;1.37;0.80;;;;;;;-144.99;100.00;67352.69;4972992;28;20181;-81
2023/08/08 00:03:03;;;;;;;0.47;0.47;;;;;;;-144.99;100.00;67352.69;4974055;28;20210;-81
2023/08/08 00:05:28;;;;;;;1.43;1.10;;;;;;;-144.99;100.00;67352.69;4974479;28;20248;-81
2023/08/08 00:07:53;;;;;;;0.50;0.50;;;;;;;-144.99;100.00;67352.69;4989731;28;20185;-81
2023/08/08 00:10:19;;;;;;;0.73;0.33;;;;;;;-144.99;100.00;67352.69;4974224;28;20221;-81
2023/08/08 00:12:44;;;;;;;0.90;0.90;;;;;;;-144.99;100.00;67352.69;4972715;28;20181;-81
2023/08/08 00:15:09;;;;;;;0.30;0.30;;;;;;;-144.99;100.00;67352.69;4989618;28;20209;-81
2023/08/08 00:17:35;;;;;;;0.70;0.60;;;;;;;-144.99;100.00;67352.69;4975422;28;20181;-81
2023/08/08 00:20:00;;;;;;;0.80;0.80;;;;;;;-144.99;100.00;67352.69;4964799;28;20262;-81
2023/08/08 00:22:26;;;;;;;0.90;0.90;;;;;;;-144.99;100.00;67352.69;4970140;28;20206;-81
2023/08/08 00:24:51;;;;;;;1.33;1.23;;;;;;;-144.99;100.00;67352.69;4957543;28;20217;-81
2023/08/08 00:27:16;;;;;;;1.33;0.77;;;;;;;-144.99;100.00;67352.69;4966548;28;20170;-81
2023/08/08 00:29:41;;;;;;;4.90;0.77;;;;;;;-144.99;100.00;67352.69;4970617;28;20664;-82
2023/08/08 00:32:07;;;;;;;6.80;0.60;;;;;;;-144.99;100.00;67352.69;4967000;28;20178;-80
2023/08/08 00:34:33;;;;;;;0.83;0.83;;;;;;;-144.99;100.00;67352.69;4984480;28;20650;-82
2023/08/08 00:36:58;;;;;;;1.77;0.97;;;;;;;-144.99;100.00;67352.69;4973572;28;20260;-81
2023/08/08 00:39:23;;;;;;;1.23;1.13;;;;;;;-144.99;100.00;67352.69;4967539;28;20185;-81
2023/08/08 00:41:48;;;;;;;1.53;1.37;;;;;;;-144.99;100.00;67352.69;4967298;28;20272;-81
2023/08/08 00:44:14;;;;;;;1.30;1.13;;;;;;;-144.99;100.00;67352.69;4974805;28;20700;-81
2023/08/08 00:46:39;;;;;;;1.00;0.90;;;;;;;-144.99;100.00;67352.69;4975376;28;20241;-82
2023/08/08 00:49:05;;;;;;;3.07;1.30;;;;;;;-144.99;100.00;67352.69;4988883;28;20594;-82
2023/08/08 00:51:30;;;;;;;4.80;0.60;;;;;;;-144.99;100.00;67352.69;4989276;28;20193;-81
2023/08/08 00:53:56;;;;;;;2.70;1.30;;;;;;;-144.99;100.00;67352.69;4973971;28;20230;-82
2023/08/08 00:56:22;;;;;;;10.93;1.70;;;;;;;-144.99;100.00;67352.69;4989738;28;20288;-82
2023/08/08 00:58:50;;;;;;;0.80;0.80;;;;;;;-144.99;100.00;67352.69;4989485;28;20193;-81
2023/08/08 01:01:16;;;;;;;1.43;1.33;;;;;;;-144.99;100.00;67352.69;4974666;28;20185;-82
2023/08/08 01:03:42;;;;;;;3.07;1.07;;;;;;;-144.99;100.00;67352.69;4974133;28;20286;-82
2023/08/08 01:06:25;;;;;;;0.90;0.90;;;;;;;-144.99;100.00;67352.69;4975579;28;20190;-81
2023/08/08 01:08:57;;;;;;;4.43;0.80;;;;;;;-144.99;100.00;67352.69;4989240;28;20214;-81
2023/08/08 01:11:23;;;;;;;1.57;1.00;;;;;;;-144.99;100.00;67352.69;4974510;28;20269;-82
2023/08/08 01:13:50;;;;;;;1.50;1.40;;;;;;;-144.99;100.00;67352.69;4988919;28;20237;-81
2023/08/08 01:16:17;;;;;;;0.83;0.83;;;;;;;-144.99;100.00;67352.69;4989702;28;20186;-82
2023/08/08 01:18:46;;;;;;;0.53;0.53;;;;;;;-144.99;100.00;67352.69;4974505;28;20228;-81
2023/08/08 01:21:14;;;;;;;0.90;0.90;;;;;;;-144.99;100.00;67352.69;4974559;28;20217;-82
2023/08/08 01:23:44;;;;;;;0.20;0.20;;;;;;;-144.99;100.00;67352.69;4974096;28;20292;-82
2023/08/08 01:26:11;;;;;;;0.73;0.37;;;;;;;-144.99;100.00;67352.69;4975609;28;20241;-81
2023/08/08 01:28:36;;;;;;;0.13;0.13;;;;;;;-144.99;100.00;67352.69;4977699;28;20193;-81
2023/08/08 01:31:02;;;;;;;0.87;0.87;;;;;;;-144.99;100.00;67352.69;4977649;28;20198;-81
2023/08/08 01:33:27;;;;;;;0.47;0.47;;;;;;;-144.99;100.00;67352.69;4970693;28;20196;-81
2023/08/08 01:35:58;;;;;;;0.80;0.80;;;;;;;-144.99;100.00;67352.69;4976700;28;20883;-81
2023/08/08 01:38:31;;;;;;;0.93;0.93;;;;;;;-144.99;100.00;67352.69;4975949;28;20224;-81
2023/08/08 01:40:57;;;;;;;0.83;0.83;;;;;;;-144.99;100.00;67352.69;4975664;28;20185;-81
2023/08/08 01:43:24;;;;;;;0.43;0.43;;;;;;;-144.99;100.00;67352.69;4975000;28;20252;-81
2023/08/08 01:45:50;;;;;;;1.63;1.40;;;;;;;-144.99;100.00;67352.69;4975620;28;20177;-80
2023/08/08 01:48:16;;;;;;;0.60;0.40;;;;;;;-144.99;100.00;67352.69;4975714;28;20595;-81
2023/08/08 01:50:41;;;;;;;0.67;0.67;;;;;;;-144.99;100.00;67352.69;4974938;28;20186;-81
2023/08/08 01:53:06;;;;;;;1.77;1.30;;;;;;;-144.99;100.00;67352.69;4966219;28;20677;-80
2023/08/08 01:55:32;;;;;;;3.30;1.93;;;;;;;-144.99;100.00;67352.69;4990634;28;20205;-81
2023/08/08 01:57:57;;;;;;;1.60;1.50;;;;;;;-144.99;100.00;67352.69;4975739;28;20272;-80
2023/08/08 02:00:23;;;;;;;1.20;1.10;;;;;;;-144.99;100.00;67352.69;4975497;28;20178;-80
2023/08/08 02:02:48;;;;;;;0.83;0.83;;;;;;;-144.99;100.00;67352.69;4974726;28;20209;-80
2023/08/08 02:05:14;;;;;;;1.60;0.97;;;;;;;-144.99;100.00;67352.69;4975725;28;20770;-81
2023/08/08 02:07:39;;;;;;;1.97;1.70;;;;;;;-144.99;100.00;67352.69;4975613;28;20285;-80
2023/08/08 02:10:05;;;;;;;1.67;1.57;;;;;;;-144.99;100.00;67352.69;4975623;28;20182;-80
2023/08/08 02:12:31;;;;;;;5.20;1.43;;;;;;;-144.99;100.00;67352.69;4974950;28;20178;-80
2023/08/08 02:14:57;;;;;;;1.40;1.30;;;;;;;-144.99;100.00;67352.69;4990696;28;20209;-81
2023/08/08 02:17:22;;;;;;;5.43;1.93;;;;;;;-144.99;100.00;67352.69;4990970;28;20604;-80
2023/08/08 02:19:47;;;;;;;2.07;1.87;;;;;;;-144.99;100.00;67352.69;4990566;28;20266;-81
2023/08/08 02:22:13;;;;;;;2.50;1.63;;;;;;;-144.99;100.00;67352.69;4975365;28;20201;-81
2023/08/08 02:24:38;;;;;;;0.77;0.73;;;;;;;-144.99;100.00;67352.69;4975246;28;20208;-80
2023/08/08 02:27:04;;;;;;;6.17;2.13;;;;;;;-144.99;100.00;67352.69;4974750;28;20580;-80
2023/08/08 02:29:29;;;;;;;3.57;2.27;;;;;;;-144.99;100.00;67352.69;4974776;28;20673;-80
2023/08/08 02:31:55;;;;;;;1.53;1.43;;;;;;;-144.99;100.00;67352.69;4966721;28;20370;-80
2023/08/08 02:34:20;;;;;;;9.57;2.13;;;;;;;-144.99;100.00;67352.69;4974210;28;20209;-80
2023/08/08 02:36:45;;;;;;;2.47;2.27;;;;;;;-144.99;100.00;67352.69;4974611;28;20177;-80
2023/08/08 02:39:11;;;;;;;1.57;1.17;;;;;;;-144.99;100.00;67352.69;4974807;28;20186;-80
2023/08/08 02:41:36;;;;;;;2.37;2.20;;;;;;;-144.99;100.00;67352.69;4974216;28;20260;-80
2023/08/08 02:44:02;;;;;;;1.70;1.60;;;;;;;-144.99;100.00;67352.69;4973779;28;20218;-81
2023/08/08 02:46:27;;;;;;;1.83;1.70;;;;;;;-144.99;100.00;67352.69;4989669;28;20264;-80
2023/08/08 02:48:52;;;;;;;1.83;1.70;;;;;;;-144.99;100.00;67352.69;4966705;28;20209;-80
2023/08/08 02:51:17;;;;;;;1.23;0.70;;;;;;;-144.99;100.00;67352.69;4973344;28;20336;-81
2023/08/08 02:53:43;;;;;;;1.73;1.63;;;;;;;-144.99;100.00;67352.69;4973860;28;20208;-80
2023/08/08 02:56:08;;;;;;;1.23;1.13;;;;;;;-144.99;100.00;67352.69;4989045;28;20716;-81
2023/08/08 02:58:33;;;;;;;1.60;1.50;;;;;;;-144.99;100.00;67352.69;4974115;28;20204;-80
2023/08/08 03:00:59;;;;;;;2.47;2.27;;;;;;;-144.99;100.00;67352.69;4988934;28;20182;-80
2023/08/08 03:03:24;;;;;;;1.73;1.63;;;;;;;-144.99;100.00;67352.69;4972992;28;20206;-80
2023/08/08 03:05:49;;;;;;;5.17;1.90;;;;;;;-144.99;100.00;67352.69;4988883;28;20265;-80
2023/08/08 03:08:15;;;;;;;1.47;1.37;;;;;;;-144.99;100.00;67352.69;4988636;28;20539;-80
2023/08/08 03:10:40;;;;;;;1.87;1.50;;;;;;;-144.99;100.00;67352.69;4988235;28;20181;-80
2023/08/08 03:13:06;;;;;;;3.10;1.80;;;;;;;-144.99;100.00;67352.69;4965676;28;20634;-80
2023/08/08 03:15:31;;;;;;;1.03;0.70;;;;;;;-144.99;100.00;67352.69;4988657;28;20297;-80
2023/08/08 03:17:57;;;;;;;1.03;1.03;;;;;;;-144.99;100.00;67352.69;4973700;28;20209;-80
2023/08/08 03:20:22;;;;;;;2.77;1.47;;;;;;;-144.99;100.00;67352.69;4973563;28;20549;-80
2023/08/08 03:22:47;;;;;;;3.30;1.27;;;;;;;-144.99;100.00;67352.69;4972476;28;20233;-80
2023/08/08 03:25:13;;;;;;;1.87;1.77;;;;;;;-144.99;100.00;67352.69;4973718;28;20252;-80
2023/08/08 03:27:38;;;;;;;1.67;1.57;;;;;;;-144.99;100.00;67352.69;4988469;28;20185;-80
2023/08/08 03:30:04;;;;;;;2.60;1.37;;;;;;;-144.99;100.00;67352.69;4988596;28;20679;-81
2023/08/08 03:32:29;;;;;;;1.77;1.67;;;;;;;-144.99;100.00;67352.69;4987455;28;20470;-80
2023/08/08 03:34:54;;;;;;;1.47;1.27;;;;;;;-144.99;100.00;67352.69;4972092;28;20201;-81
2023/08/08 03:37:20;;;;;;;0.90;0.60;;;;;;;-144.99;100.00;67352.69;4973295;28;20181;-80
2023/08/08 03:39:45;;;;;;;2.20;1.57;;;;;;;-144.99;100.00;67352.69;4973380;28;20566;-80
2023/08/08 03:42:10;;;;;;;1.80;1.40;;;;;;;-144.99;100.00;67352.69;4972422;28;20201;-80
2023/08/08 03:44:36;;;;;;;1.87;1.67;;;;;;;-144.99;100.00;67352.69;4988086;28;20213;-81
2023/08/08 03:47:01;;;;;;;1.63;1.10;;;;;;;-144.99;100.00;67352.69;4973567;28;20479;-80
2023/08/08 03:49:26;;;;;;;0.60;0.60;;;;;;;-144.99;100.00;67352.69;4973453;28;20586;-80
2023/08/08 03:51:52;;;;;;;1.27;1.20;;;;;;;-144.99;100.00;67352.69;4972640;28;20220;-80
2023/08/08 03:54:18;;;;;;;1.30;1.20;;;;;;;-144.99;100.00;67352.69;4972668;28;20250;-81
2023/08/08 03:56:43;;;;;;;0.10;0.10;;;;;;;-144.99;100.00;67352.69;4988025;28;20188;-81
2023/08/08 03:59:08;;;;;;;0.30;0.30;;;;;;;-144.99;100.00;67352.69;4970051;28;20186;-80
2023/08/08 04:01:34;;;;;;;1.33;1.23;;;;;;;-144.99;100.00;67352.69;4972906;28;20251;-80
2023/08/08 04:03:59;;;;;;;1.80;1.37;;;;;;;-144.99;100.00;67352.69;4971304;28;20244;-80
2023/08/08 04:06:24;;;;;;;1.63;1.53;;;;;;;-144.99;100.00;67352.69;4987842;28;20217;-81
2023/08/08 04:08:50;;;;;;;0.63;0.60;;;;;;;-144.99;100.00;67352.69;4972988;28;20236;-80
2023/08/08 04:11:16;;;;;;;4.33;2.00;;;;;;;-144.99;100.00;67352.69;4973084;28;20210;-80
2023/08/08 04:13:41;;;;;;;2.13;1.23;;;;;;;-144.99;100.00;67352.69;4971901;28;20295;-80
2023/08/08 04:16:06;;;;;;;1.43;1.33;;;;;;;-144.99;100.00;67352.69;4987965;28;20649;-80
2023/08/08 04:18:31;;;;;;;1.80;1.47;;;;;;;-144.99;100.00;67352.69;4973036;28;20190;-81
2023/08/08 04:20:57;;;;;;;0.67;0.60;;;;;;;-144.99;100.00;67352.69;4972717;28;20208;-81
2023/08/08 04:23:25;;;;;;;1.50;1.40;;;;;;;-144.99;100.00;67352.69;4971979;28;20284;-81
2023/08/08 04:25:50;;;;;;;1.20;1.20;;;;;;;-144.99;100.00;67352.69;4972854;28;20268;-80
2023/08/08 04:28:16;;;;;;;2.23;2.03;;;;;;;-144.99;100.00;67352.69;4972810;28;20247;-80
2023/08/08 04:30:41;;;;;;;0.87;0.77;;;;;;;-144.99;100.00;67352.69;4972750;28;20193;-80
2023/08/08 04:33:06;;;;;;;0.57;0.57;;;;;;;-144.99;100.00;67352.69;4983155;28;20178;-80
2023/08/08 04:35:31;;;;;;;0.50;0.50;;;;;;;-144.99;100.00;67352.69;4968487;28;20201;-80
2023/08/08 04:37:57;;;;;;;1.40;1.03;;;;;;;-144.99;100.00;67352.69;4972668;28;20667;-79
2023/08/08 04:40:22;;;;;;;1.30;1.20;;;;;;;-144.99;100.00;67352.69;4973100;28;20542;-80
2023/08/08 04:42:47;;;;;;;0.30;0.30;;;;;;;-144.99;100.00;67352.69;4979167;28;20689;-80
2023/08/08 04:45:13;;;;;;;0.83;0.83;;;;;;;-144.99;100.00;67352.69;4972873;28;20206;-80
2023/08/08 04:47:39;;;;;;;0.70;0.70;;;;;;;-144.99;100.00;67352.69;4968615;28;20233;-80
2023/08/08 04:50:04;;;;;;;5.50;0.73;;;;;;;-144.99;100.00;67352.69;4961517;28;20174;-79
2023/08/08 04:52:30;;;;;;;1.73;1.63;;;;;;;-144.99;100.00;67352.69;4960673;28;20193;-79
2023/08/08 04:54:55;;;;;;;1.40;1.30;;;;;;;-144.99;100.00;67352.69;4959656;28;20215;-81
2023/08/08 04:57:20;;;;;;;1.67;1.53;;;;;;;-144.99;100.00;67352.69;4955339;28;20175;-80
2023/08/08 04:59:46;;;;;;;1.47;1.37;;;;;;;-144.99;100.00;67352.69;4953162;28;20186;-80
2023/08/08 05:02:11;;;;;;;1.47;1.37;;;;;;;-144.99;100.00;67352.69;4954761;29;20230;-80
2023/08/08 05:04:36;;;;;;;5.43;1.23;;;;;;;-144.99;100.00;67352.69;4957271;28;20719;-80
2023/08/08 05:07:02;;;;;;;0.90;0.90;;;;;;;-144.99;100.00;67352.69;4962674;28;20186;-80
2023/08/08 05:09:27;;;;;;;0.57;0.57;;;;;;;-144.99;100.00;67352.69;4972300;28;20225;-80
2023/08/08 05:11:53;;;;;;;6.70;1.47;;;;;;;-144.99;100.00;67352.69;4955765;29;20569;-80
2023/08/08 05:14:18;;;;;;;2.23;1.83;;;;;;;-144.99;100.00;67352.69;4956833;28;20198;-80
2023/08/08 05:16:44;;;;;;;0.57;0.57;;;;;;;-144.99;100.00;67352.69;4976445;28;20265;-80
2023/08/08 05:19:09;;;;;;;3.37;1.77;;;;;;;-144.99;100.00;67352.69;4981869;28;20175;-81
2023/08/08 05:21:34;;;;;;;5.13;2.17;;;;;;;-144.99;100.00;67352.69;4972257;28;20181;-81
2023/08/08 05:24:00;;;;;;;1.07;1.03;;;;;;;-144.99;100.00;67352.69;4971436;28;20218;-81
2023/08/08 05:26:25;;;;;;;2.63;2.43;;;;;;;-144.99;100.00;67352.69;4970079;28;20189;-81
2023/08/08 05:28:50;;;;;;;1.60;1.50;;;;;;;-144.99;100.00;67352.69;4969259;28;20186;-81
2023/08/08 05:31:16;;;;;;;1.17;1.17;;;;;;;-144.99;100.00;67352.69;4978677;28;20182;-82
2023/08/08 05:33:41;;;;;;;2.03;1.90;;;;;;;-144.99;100.00;67352.69;4976381;28;20197;-81
2023/08/08 05:36:07;;;;;;;2.90;2.67;;;;;;;-144.99;100.00;67352.69;4970885;28;20273;-82
2023/08/08 05:38:32;;;;;;;2.07;1.63;;;;;;;-144.99;100.00;67352.69;4963024;28;20576;-81
2023/08/08 05:40:58;;;;;;;3.73;3.10;;;;;;;-144.99;100.00;67352.69;4976669;28;20202;-82
2023/08/08 05:43:23;;;;;;;2.30;2.20;;;;;;;-144.99;100.00;67352.69;4973600;28;20201;-81
2023/08/08 05:45:48;;;;;;;2.53;2.33;;;;;;;-144.99;100.00;67352.69;4993344;28;20209;-81
2023/08/08 05:48:13;;;;;;;12.90;2.87;;;;;;;-144.99;100.00;67352.69;4973130;28;20190;-81
2023/08/08 05:50:40;;;;;;;7.10;4.07;;;;;;;-144.99;100.00;67352.69;4987097;28;20188;-81
2023/08/08 05:53:05;;;;;;;4.90;4.10;;;;;;;-144.99;100.00;67352.69;4959729;28;20185;-80
2023/08/08 05:55:31;;;;;;;5.30;3.17;;;;;;;-144.99;100.00;67352.69;4966833;28;20197;-80
2023/08/08 05:57:56;;;;;;;0.97;0.90;;;;;;;-144.99;100.00;67352.69;4970991;28;20181;-82
2023/08/08 06:00:22;;;;;;;3.97;3.60;;;;;;;-144.99;100.00;67352.69;4972439;28;20248;-81
2023/08/08 06:02:47;;;;;;;16.63;1.97;;;;;;;-144.99;100.00;67352.69;4991011;28;20202;-80
2023/08/08 06:05:13;;;;;;;6.33;2.20;;;;;;;-144.99;100.00;67352.69;4977950;28;20242;-81
2023/08/08 06:07:39;;;;;;;3.77;3.13;;;;;;;-144.99;100.00;67352.69;4959298;28;20182;-81
2023/08/08 06:10:08;;;;;;;2.73;2.53;;;;;;;-144.99;100.00;67352.69;4971635;23;20561;-77
2023/08/08 06:12:33;;;;;;;2.10;2.00;;;;;;;-144.99;100.00;67352.69;5028636;28;20258;-78
2023/08/08 06:14:58;;;;;;;1.97;1.87;;;;;;;-144.99;100.00;67352.69;5032664;28;20215;-77
2023/08/08 06:17:24;;;;;;;3.73;3.07;;;;;;;-144.99;100.00;67352.69;5033929;28;20184;-78
2023/08/08 06:19:50;;;;;;;8.60;4.37;;;;;;;-144.99;100.00;67352.69;5033851;28;20188;-77
2023/08/08 06:22:15;;;;;;;3.53;3.23;;;;;;;-144.99;100.00;67352.69;5033398;28;20333;-77
2023/08/08 06:24:41;;;;;;;2.33;1.73;;;;;;;-144.99;100.00;67352.69;5033848;28;20321;-78
2023/08/08 06:27:06;;;;;;;2.93;2.73;;;;;;;-144.99;100.00;67352.69;5033778;28;20183;-78
2023/08/08 06:29:32;;;;;;;5.03;4.07;;;;;;;-144.99;100.00;67352.69;5033704;28;20566;-77
2023/08/08 06:31:57;;;;;;;2.77;2.50;;;;;;;-144.99;100.00;67352.69;5034821;28;20189;-78
2023/08/08 06:34:22;;;;;;;3.37;3.17;;;;;;;-144.99;100.00;67352.69;5035264;28;20214;-78
2023/08/08 06:36:48;;;;;;;3.10;2.90;;;;;;;-144.99;100.00;67352.69;5035596;28;20191;-78
2023/08/08 06:39:13;;;;;;;13.07;2.63;;;;;;;-144.99;100.00;67352.69;5030627;28;20190;-77
2023/08/08 06:41:38;;;;;;;2.50;2.30;;;;;;;-144.99;100.00;67352.69;5028930;28;20648;-77
2023/08/08 06:44:04;;;;;;;2.73;2.43;;;;;;;-144.99;100.00;67352.69;5034191;28;20208;-79
2023/08/08 06:46:30;;;;;;;4.30;4.00;;;;;;;-144.99;100.00;67352.69;5034275;28;20201;-77
2023/08/08 06:48:58;;;;;;;3.90;3.70;;;;;;;-144.99;100.00;67352.69;5033305;28;20554;-78
2023/08/08 06:51:25;;;;;;;14.93;2.60;;;;;;;-144.99;100.00;67352.69;5032026;28;20615;-77
2023/08/08 06:53:50;;;;;;;4.53;4.23;;;;;;;-144.99;100.00;67352.69;5030273;28;20604;-77
2023/08/08 06:56:16;;;;;;;3.67;3.37;;;;;;;-144.99;100.00;67352.69;5031776;28;20234;-78
2023/08/08 06:58:41;;;;;;;3.37;3.10;;;;;;;-144.99;100.00;67352.69;5031896;28;20190;-77
2023/08/08 07:01:07;;;;;;;4.50;4.10;;;;;;;-144.99;100.00;67352.69;5033094;28;20586;-77
2023/08/08 07:03:32;;;;;;;3.83;3.53;;;;;;;-144.99;100.00;67352.69;5031159;28;20286;-77
2023/08/08 07:05:57;;;;;;;1.83;1.73;;;;;;;-144.99;100.00;67352.69;5033122;28;20242;-77
2023/08/08 07:08:23;;;;;;;5.67;3.93;;;;;;;-144.99;100.00;67352.69;5033005;28;20207;-77
2023/08/08 07:10:49;;;;;;;2.87;2.63;;;;;;;-144.99;100.00;67352.69;5029319;28;20206;-77
2023/08/08 07:13:15;;;;;;;8.70;4.87;;;;;;;-144.99;100.00;67352.69;5033390;28;20200;-77
2023/08/08 07:15:41;;;;;;;5.33;4.87;;;;;;;-144.99;100.00;67352.69;5032826;28;20617;-77
2023/08/08 07:18:06;;;;;;;6.90;2.03;;;;;;;-144.99;100.00;67352.69;5032912;28;20243;-77
2023/08/08 07:20:32;;;;;;;8.47;3.67;;;;;;;-144.99;100.00;67352.69;5033214;28;20668;-76
2023/08/08 07:22:57;;;;;;;2.83;2.67;;;;;;;-144.99;100.00;67352.69;5031129;28;20207;-77
2023/08/08 07:25:22;;;;;;;5.07;4.67;;;;;;;-144.99;100.00;67352.69;5031610;28;20544;-77
2023/08/08 07:27:48;;;;;;;3.40;3.10;;;;;;;-144.99;100.00;67352.69;5031950;28;20184;-77
2023/08/08 07:30:13;;;;;;;3.30;2.83;;;;;;;-144.99;100.00;67352.69;5033109;28;20656;-77
2023/08/08 07:32:39;;;;;;;4.87;3.33;;;;;;;-144.99;100.00;67352.69;5032363;28;20530;-77
2023/08/08 07:35:05;;;;;;;6.93;3.60;;;;;;;-144.99;100.00;67352.69;5032570;28;20191;-77
2023/08/08 07:37:33;;;;;;;3.43;3.17;;;;;;;-144.99;100.00;67352.69;5031398;28;20186;-77
2023/08/08 07:39:58;;;;;;;3.70;3.40;;;;;;;-144.99;100.00;67352.69;5032695;28;20552;-78
2023/08/08 07:42:23;;;;;;;1.97;1.87;;;;;;;-144.99;100.00;67352.69;5032153;28;20217;-77
2023/08/08 07:44:49;;;;;;;3.43;3.23;;;;;;;-144.99;100.00;67352.69;5032533;28;20211;-77
2023/08/08 07:47:14;;;;;;;4.00;2.97;;;;;;;-144.99;100.00;67352.69;5031012;28;20594;-77
2023/08/08 07:49:39;;;;;;;3.90;3.63;;;;;;;-144.99;100.00;67352.69;5032470;28;20641;-77
2023/08/08 07:52:05;;;;;;;4.73;3.90;;;;;;;-144.99;100.00;67352.69;5032668;28;20258;-77
2023/08/08 07:54:30;;;;;;;3.40;3.10;;;;;;;-144.99;100.00;67352.69;5032183;28;20227;-77
2023/08/08 07:56:56;;;;;;;4.07;3.77;;;;;;;-144.99;100.00;67352.69;5031190;28;20213;-77
2023/08/08 07:59:21;;;;;;;3.63;3.20;;;;;;;-144.99;100.00;67352.69;5031106;28;20192;-77
2023/08/08 08:01:46;;;;;;;2.50;2.30;;;;;;;-144.99;100.00;67352.69;5031530;28;20242;-77
2023/08/08 08:04:12;;;;;;;2.43;2.17;;;;;;;-144.99;100.00;67352.69;5028027;28;20211;-77
2023/08/08 08:06:37;;;;;;;5.77;3.70;;;;;;;-144.99;100.00;67352.69;5028379;28;20184;-77
2023/08/08 08:09:03;;;;;;;1.93;1.73;;;;;;;-144.99;100.00;67352.69;5029139;28;20643;-77
2023/08/08 08:11:29;;;;;;;1.70;1.60;;;;;;;-144.99;100.00;67352.69;5030588;28;20184;-77
2023/08/08 08:13:54;;;;;;;3.47;2.60;;;;;;;-144.99;100.00;67352.69;5030810;28;20210;-77
2023/08/08 08:16:20;;;;;;;4.73;1.97;;;;;;;-144.99;100.00;67352.69;5031047;28;20187;-77
2023/08/08 08:18:47;;;;;;;4.40;3.13;;;;;;;-144.99;100.00;67352.69;5032246;28;20550;-77
2023/08/08 08:21:13;;;;;;;4.60;3.00;;;;;;;-144.99;100.00;67352.69;5030727;28;20198;-78
2023/08/08 08:23:38;;;;;;;2.30;1.60;;;;;;;-144.99;100.00;67352.69;5025843;28;20207;-78
2023/08/08 08:26:04;;;;;;;1.70;1.13;;;;;;;-144.99;100.00;67352.69;5027983;28;20188;-77
2023/08/08 08:28:29;;;;;;;1.03;0.97;;;;;;;-144.99;100.00;67352.69;5025009;28;20243;-77
2023/08/08 08:30:54;;;;;;;3.13;2.00;;;;;;;-144.99;100.00;67352.69;5027722;28;20184;-77
2023/08/08 08:33:20;;;;;;;1.47;1.37;;;;;;;-144.99;100.00;67352.69;5027626;28;20879;-77
2023/08/08 08:35:45;;;;;;;1.83;1.60;;;;;;;-144.99;100.00;67352.69;5027973;28;20530;-77
2023/08/08 08:38:11;;;;;;;4.00;1.10;;;;;;;-144.99;100.00;67352.69;5032680;28;20171;-77
2023/08/08 08:40:39;;;;;;;1.43;1.33;;;;;;;-144.99;100.00;67352.69;5031324;28;20180;-78
2023/08/08 08:43:06;;;;;;;1.70;1.60;;;;;;;-144.99;100.00;67352.69;5027721;28;20204;-77
2023/08/08 08:45:34;;;;;;;5.70;2.63;;;;;;;-144.99;100.00;67352.69;5035860;28;20202;-77
2023/08/08 08:48:01;;;;;;;2.67;2.47;;;;;;;-144.99;100.00;67352.69;5036453;28;20210;-77
2023/08/08 08:50:27;;;;;;;1.67;1.07;;;;;;;-144.99;100.00;67352.69;5035889;28;20187;-77
2023/08/08 08:52:55;;;;;;;1.50;1.40;;;;;;;-144.99;100.00;67352.69;5035771;28;20184;-78
2023/08/08 08:55:21;;;;;;;1.80;1.70;;;;;;;-144.99;100.00;67352.69;5032519;28;20189;-77
2023/08/08 08:57:49;;;;;;;1.77;1.67;;;;;;;-144.99;100.00;67352.69;5034630;28;20211;-77
2023/08/08 09:00:15;;;;;;;5.23;1.53;;;;;;;-144.99;100.00;67352.69;5032916;28;20183;-77
2023/08/08 09:02:41;;;;;;;5.07;1.73;;;;;;;-144.99;100.00;67352.69;5030471;28;20222;-77
2023/08/08 09:05:07;;;;;;;4.00;3.20;;;;;;;-144.99;100.00;67352.69;5032239;28;20211;-77
2023/08/08 09:07:33;;;;;;;1.07;1.07;;;;;;;-144.99;100.00;67352.69;5027587;28;20218;-77
2023/08/08 09:09:58;;;;;;;1.90;1.80;;;;;;;-144.99;100.00;67352.69;5031383;28;20661;-77
2023/08/08 09:12:24;;;;;;;2.60;2.40;;;;;;;-144.99;100.00;67352.69;5033627;28;20195;-77
2023/08/08 09:14:57;;;;;;;1.90;1.80;;;;;;;-144.99;100.00;67352.69;5033977;28;20215;-77
2023/08/08 09:17:25;;;;;;;1.50;1.40;;;;;;;-144.99;100.00;67352.69;5031027;28;20233;-77
2023/08/08 09:19:53;;;;;;;2.40;2.20;;;;;;;-144.99;100.00;67352.69;5032779;28;20184;-77
2023/08/08 09:22:19;;;;;;;2.93;2.70;;;;;;;-144.99;100.00;67352.69;5029447;28;20207;-77
2023/08/08 09:24:46;;;;;;;1.77;1.67;;;;;;;-144.99;100.00;67352.69;5032657;28;20235;-77
2023/08/08 09:27:11;;;;;;;12.60;3.70;;;;;;;-144.99;100.00;67352.69;5034842;28;20226;-77
2023/08/08 09:29:37;;;;;;;3.40;3.10;;;;;;;-144.99;100.00;67352.69;5035043;28;20187;-76
2023/08/08 09:32:04;;;;;;;3.60;3.33;;;;;;;-144.99;100.00;67352.69;5035211;28;20256;-77
2023/08/08 09:34:30;;;;;;;4.73;4.23;;;;;;;-144.99;100.00;67352.69;5033626;28;20208;-76
2023/08/08 09:36:55;;;;;;;4.77;4.40;;;;;;;-144.99;100.00;67352.69;5035270;28;20691;-77
2023/08/08 09:39:21;;;;;;;6.30;3.83;;;;;;;-144.99;100.00;67352.69;5035296;28;20184;-77
2023/08/08 09:41:47;;;;;;;9.53;2.93;;;;;;;-144.99;100.00;67352.69;5035265;28;20218;-77
2023/08/08 09:44:12;;;;;;;10.60;4.13;;;;;;;-144.99;100.00;67352.69;5034484;28;20262;-77
2023/08/08 09:46:39;;;;;;;3.37;3.17;;;;;;;-144.99;100.00;67352.69;5033960;28;20600;-77
2023/08/08 09:49:06;;;;;;;7.20;3.67;;;;;;;-144.99;100.00;67352.69;5034682;28;20208;-77
2023/08/08 09:51:33;;;;;;;3.03;2.77;;;;;;;-144.99;100.00;67352.69;5034869;28;20188;-76
2023/08/08 09:53:59;;;;;;;3.40;3.20;;;;;;;-144.99;100.00;67352.69;5032787;28;20214;-77
2023/08/08 09:56:25;;;;;;;3.70;3.40;;;;;;;-144.99;100.00;67352.69;5034458;28;20176;-76
2023/08/08 09:58:52;;;;;;;2.90;2.70;;;;;;;-144.99;100.00;67352.69;5032908;28;20191;-76
2023/08/08 10:01:19;;;;;;;8.63;3.23;;;;;;;-144.99;100.00;67352.69;5034302;28;20191;-77
2023/08/08 10:03:45;;;;;;;5.37;4.70;;;;;;;-144.99;100.00;67352.69;5032469;28;20207;-77
2023/08/08 10:06:10;;;;;;;2.73;2.53;;;;;;;-144.99;100.00;67352.69;5034344;28;20534;-76
2023/08/08 10:08:36;;;;;;;6.47;4.13;;;;;;;-144.99;100.00;67352.69;5034245;28;20180;-77
2023/08/08 10:11:02;;;;;;;3.13;2.93;;;;;;;-144.99;100.00;67352.69;5034137;28;20192;-77
2023/08/08 10:13:28;;;;;;;5.77;1.80;;;;;;;-144.99;100.00;67352.69;5033444;28;20686;-76
2023/08/08 10:15:54;;;;;;;6.27;3.60;;;;;;;-144.99;100.00;67352.69;5033992;28;20183;-76
2023/08/08 10:18:23;;;;;;;3.53;3.23;;;;;;;-144.99;100.00;67352.69;5033982;28;20644;-76
2023/08/08 10:20:50;;;;;;;4.20;3.90;;;;;;;-144.99;100.00;67352.69;5033842;28;20394;-77
2023/08/08 10:23:18;;;;;;;5.50;5.03;;;;;;;-144.99;100.00;67352.69;5032182;28;20219;-77
2023/08/08 10:25:45;;;;;;;4.20;3.87;;;;;;;-144.99;100.00;67352.69;5033880;28;20184;-77
2023/08/08 10:28:14;;;;;;;10.77;2.90;;;;;;;-144.99;100.00;67352.69;5033776;28;20184;-77
2023/08/08 10:30:44;;;;;;;4.00;2.80;;;;;;;-144.99;100.00;67352.69;5037516;28;20192;-77
2023/08/08 10:33:16;;;;;;;5.00;2.00;;;;;;;-144.99;100.00;67352.69;5035261;28;20211;-77
2023/08/08 10:35:56;;;;;;;3.47;3.17;;;;;;;-144.99;100.00;67352.69;5033826;28;20215;-76
2023/08/08 10:38:25;;;;;;;3.67;3.47;;;;;;;-144.99;100.00;67352.69;5033954;28;20180;-77
2023/08/08 10:40:58;;;;;;;2.40;2.20;;;;;;;-144.99;100.00;67352.69;5033577;28;20184;-76
2023/08/08 10:43:30;;;;;;;3.10;2.80;;;;;;;-144.99;100.00;67352.69;5033065;28;20219;-77
2023/08/08 10:46:01;;;;;;;3.27;2.60;;;;;;;-144.99;100.00;67352.69;5033618;28;20187;-77
2023/08/08 10:48:27;;;;;;;3.50;3.23;;;;;;;-144.99;100.00;67352.69;5033392;28;20229;-77
2023/08/08 10:50:59;;;;;;;2.77;2.63;;;;;;;-144.99;100.00;67352.69;5032007;28;20595;-77
2023/08/08 10:53:28;;;;;;;2.37;1.83;;;;;;;-144.99;100.00;67352.69;5033222;28;20553;-77
2023/08/08 10:56:02;;;;;;;2.27;2.03;;;;;;;-144.99;100.00;67352.69;5033074;28;20180;-77
2023/08/08 10:58:38;;;;;;;2.87;2.67;;;;;;;-144.99;100.00;67352.69;5034050;28;20182;-84
2023/08/08 11:01:07;;;;;;;5.60;2.30;;;;;;;-144.99;100.00;67352.69;5032354;28;20198;-84
2023/08/08 11:03:34;;;;;;;7.27;2.60;;;;;;;-144.99;100.00;67352.69;5033782;28;20265;-85